Observation data for Reese Center on 02/11/2018      Previous  Date  Next       Current Mesonet Observations  Soil Data  Daily Summary Page  Observations in Plain Language
KREE 110600Z 04013KT M07/M13 A30 RMK A01 T10691126  RH  065%=      5-min Rain = 0
KREE 110605Z 04013KT M07/M13 A30 RMK A01 T10691126  RH  065%=      5-min Rain = 0
KREE 110610Z 03012KT M07/M13 A30 RMK A01 T10701126  RH  065%=      5-min Rain = 0
KREE 110615Z 03014KT M07/M13 A30 RMK A01 T10711126  RH  066%=      5-min Rain = 0
KREE 110620Z 03014G19KT M07/M13 A30 RMK A01 T10721126  RH  066%=      5-min Rain = 0
KREE 110625Z 03015KT M07/M13 A30 RMK A01 T10731125  RH  067%=      5-min Rain = 0
KREE 110630Z 03012KT M07/M13 A30 RMK A01 T10731125  RH  067%=      5-min Rain = 0
KREE 110635Z 03014G20KT M07/M13 A30 RMK A01 T10741125  RH  068%=      5-min Rain = 0
KREE 110640Z 02012G17KT M07/M13 A30 RMK A01 T10741125  RH  068%=      5-min Rain = 0
KREE 110645Z 03013G19KT M07/M13 A30 RMK A01 T10741125  RH  068%=      5-min Rain = 0
KREE 110650Z 02013KT M08/M13 A30 RMK A01 T10751125  RH  068%=      5-min Rain = 0
KREE 110655Z 02016KT M08/M13 A30 RMK A01 T10751125  RH  068%=      5-min Rain = 0
KREE 110700Z 03014KT M08/M13 A30 RMK A01 T10761126  RH  068%=      5-min Rain = 0
KREE 110705Z 03015KT M08/M13 A30 RMK A01 T10761126  RH  069%=      5-min Rain = 0
KREE 110710Z 03013KT M08/M13 A30 RMK A01 T10771126  RH  069%=      5-min Rain = 0
KREE 110715Z 03011KT M08/M13 A30 RMK A01 T10781126  RH  069%=      5-min Rain = 0
KREE 110720Z 02013KT M08/M13 A30 RMK A01 T10781127  RH  069%=      5-min Rain = 0
KREE 110725Z 02011KT M08/M13 A3001 RMK A01 T10791127  RH  069%=      5-min Rain = 0
KREE 110730Z 02012KT M08/M13 A3001 RMK A01 T10801128  RH  070%=      5-min Rain = 0
KREE 110735Z 01010KT M08/M13 A3001 RMK A01 T10811129  RH  070%=      5-min Rain = 0
KREE 110740Z 02011KT M08/M13 A3001 RMK A01 T10821129  RH  070%=      5-min Rain = 0
KREE 110745Z 01012G17KT M08/M13 A3001 RMK A01 T10821130  RH  070%=      5-min Rain = 0
KREE 110750Z 01014G19KT M08/M13 A3001 RMK A01 T10821130  RH  069%=      5-min Rain = 0
KREE 110755Z 02016KT M08/M13 A3002 RMK A01 T10821131  RH  069%=      5-min Rain = 0
KREE 110800Z 02015G20KT M08/M13 A3002 RMK A01 T10831132  RH  069%=      5-min Rain = 0
KREE 110805Z 02014KT M08/M13 A3002 RMK A01 T10831132  RH  069%=      5-min Rain = 0
KREE 110810Z 02016G22KT M08/M13 A3003 RMK A01 T10841133  RH  068%=      5-min Rain = 0
KREE 110815Z 02017G22KT M08/M13 A3003 RMK A01 T10841134  RH  068%=      5-min Rain = 0
KREE 110820Z 02016KT M09/M13 A3003 RMK A01 T10851134  RH  068%=      5-min Rain = 0
KREE 110825Z 02015KT M09/M13 A3003 RMK A01 T10861134  RH  069%=      5-min Rain = 0
KREE 110830Z 02013G18KT M09/M14 A3004 RMK A01 T10861135  RH  069%=      5-min Rain = 0
KREE 110835Z 02013KT M09/M14 A3004 RMK A01 T10871135  RH  070%=      5-min Rain = 0
KREE 110840Z 01011KT M09/M14 A3004 RMK A01 T10881135  RH  070%=      5-min Rain = 0
KREE 110845Z 01012KT M09/M14 A3004 RMK A01 T10881135  RH  070%=      5-min Rain = 0
KREE 110850Z 01013KT M09/M14 A3005 RMK A01 T10891136  RH  070%=      5-min Rain = 0
KREE 110855Z 01013G19KT M09/M14 A3005 RMK A01 T10891136  RH  070%=      5-min Rain = 0
KREE 110900Z 01013KT M09/M14 A3005 RMK A01 T10901136  RH  070%=      5-min Rain = 0
KREE 110905Z 01012G17KT M09/M14 A3005 RMK A01 T10901137  RH  070%=      5-min Rain = 0
KREE 110910Z 01012KT M09/M14 A3005 RMK A01 T10911137  RH  071%=      5-min Rain = 0
KREE 110915Z 01013KT M09/M14 A3004 RMK A01 T10921137  RH  071%=      5-min Rain = 0
KREE 110920Z 02012G17KT M09/M14 A3005 RMK A01 T10921137  RH  071%=      5-min Rain = 0
KREE 110925Z 02011KT M09/M14 A3005 RMK A01 T10931137  RH  071%=      5-min Rain = 0
KREE 110930Z 02010KT M09/M14 A3005 RMK A01 T10931137  RH  071%=      5-min Rain = 0
KREE 110935Z 01008KT M09/M14 A3005 RMK A01 T10941138  RH  072%=      5-min Rain = 0
KREE 110940Z 01010KT M10/M14 A3005 RMK A01 T10951137  RH  072%=      5-min Rain = 0
KREE 110945Z 01010KT M10/M14 A3005 RMK A01 T10951137  RH  072%=      5-min Rain = 0
KREE 110950Z 01011KT M10/M14 A3005 RMK A01 T10951137  RH  073%=      5-min Rain = 0
KREE 110955Z 01011KT M10/M14 A3005 RMK A01 T10951137  RH  073%=      5-min Rain = 0
KREE 111000Z 01010G15KT M10/M14 A3005 RMK A01 T10951137  RH  073%=      5-min Rain = 0
KREE 111005Z 01010KT M10/M14 A3005 RMK A01 T10961137  RH  073%=      5-min Rain = 0
KREE 111010Z 00009KT M10/M14 A3005 RMK A01 T10961137  RH  073%=      5-min Rain = 0
KREE 111015Z 00009KT M10/M14 A3005 RMK A01 T10971138  RH  073%=      5-min Rain = 0
KREE 111020Z 00010KT M10/M14 A3005 RMK A01 T10971138  RH  073%=      5-min Rain = 0
KREE 111025Z 00010KT M10/M14 A3006 RMK A01 T10961137  RH  073%=      5-min Rain = 0
KREE 111030Z 00011KT M10/M14 A3006 RMK A01 T10961137  RH  073%=      5-min Rain = 0
KREE 111035Z 00011KT M10/M14 A3006 RMK A01 T10951137  RH  073%=      5-min Rain = 0
KREE 111040Z 00011KT M10/M14 A3006 RMK A01 T10951137  RH  073%=      5-min Rain = 0
KREE 111045Z 00010KT M10/M14 A3006 RMK A01 T10951137  RH  072%=      5-min Rain = 0
KREE 111050Z 36009KT M09/M14 A3007 RMK A01 T10941137  RH  072%=      5-min Rain = 0
KREE 111055Z 36009KT M09/M14 A3007 RMK A01 T10941137  RH  072%=      5-min Rain = 0
KREE 111100Z 36009KT M09/M14 A3008 RMK A01 T10941137  RH  072%=      5-min Rain = 0
KREE 111105Z 36009KT M09/M14 A3008 RMK A01 T10941137  RH  072%=      5-min Rain = 0
KREE 111110Z 35007KT M10/M14 A3008 RMK A01 T10951137  RH  072%=      5-min Rain = 0
KREE 111115Z 35008KT M10/M14 A3008 RMK A01 T10961138  RH  073%=      5-min Rain = 0
KREE 111120Z 35007KT M10/M14 A3008 RMK A01 T10971138  RH  073%=      5-min Rain = 0
KREE 111125Z 35008KT M10/M14 A3008 RMK A01 T10971138  RH  073%=      5-min Rain = 0
KREE 111130Z 35009KT M10/M14 A3008 RMK A01 T10961137  RH  073%=      5-min Rain = 0
KREE 111135Z 35008KT M10/M14 A3008 RMK A01 T10961137  RH  073%=      5-min Rain = 0
KREE 111140Z 35008KT M10/M14 A3009 RMK A01 T10961136  RH  073%=      5-min Rain = 0
KREE 111145Z 36007KT M10/M14 A3009 RMK A01 T10951136  RH  073%=      5-min Rain = 0
KREE 111150Z 35008KT M10/M14 A3009 RMK A01 T10951137  RH  073%=      5-min Rain = 0
KREE 111155Z 35008KT M09/M14 A3009 RMK A01 T10941136  RH  073%=      5-min Rain = 0
KREE 111200Z 35008KT M09/M14 A3009 RMK A01 T10941136  RH  073%=      5-min Rain = 0
KREE 111205Z 35008KT M09/M14 A301 RMK A01 T10921135  RH  072%=      5-min Rain = 0
KREE 111210Z 35009KT M09/M14 A301 RMK A01 T10911135  RH  072%=      5-min Rain = 0
KREE 111215Z 35007KT M09/M14 A301 RMK A01 T10911135  RH  071%=      5-min Rain = 0
KREE 111220Z 35007KT M09/M14 A3011 RMK A01 T10911135  RH  071%=      5-min Rain = 0
KREE 111225Z 35007KT M09/M14 A3011 RMK A01 T10911135  RH  071%=      5-min Rain = 0
KREE 111230Z 35007KT M09/M14 A3011 RMK A01 T10911136  RH  071%=      5-min Rain = 0
KREE 111235Z 35007KT M09/M14 A3011 RMK A01 T10911136  RH  071%=      5-min Rain = 0
KREE 111240Z 35007KT M09/M14 A3012 RMK A01 T10901135  RH  071%=      5-min Rain = 0
KREE 111245Z 35007KT M09/M14 A3012 RMK A01 T10901135  RH  071%=      5-min Rain = 0
KREE 111250Z 35006KT M09/M14 A3012 RMK A01 T10891135  RH  070%=      5-min Rain = 0
KREE 111255Z 35006KT M09/M13 A3013 RMK A01 T10871134  RH  070%=      5-min Rain = 0
KREE 111300Z 34008KT M09/M13 A3014 RMK A01 T10851134  RH  069%=      5-min Rain = 0
KREE 111305Z 35007KT M08/M13 A3013 RMK A01 T10841134  RH  068%=      5-min Rain = 0
KREE 111310Z 35006KT M08/M13 A3013 RMK A01 T10841134  RH  068%=      5-min Rain = 0
KREE 111315Z 36007KT M08/M13 A3013 RMK A01 T10831134  RH  068%=      5-min Rain = 0
KREE 111320Z 36007KT M08/M13 A3013 RMK A01 T10811134  RH  067%=      5-min Rain = 0
KREE 111325Z 36006KT M08/M13 A3014 RMK A01 T10801134  RH  066%=      5-min Rain = 0
KREE 111330Z 35008KT M08/M13 A3014 RMK A01 T10781133  RH  066%=      5-min Rain = 0
KREE 111335Z 35006KT M08/M13 A3015 RMK A01 T10771133  RH  065%=      5-min Rain = 0
KREE 111340Z 35006KT M08/M13 A3015 RMK A01 T10771133  RH  065%=      5-min Rain = 0
KREE 111345Z 34006KT M08/M13 A3015 RMK A01 T10761133  RH  065%=      5-min Rain = 0
KREE 111350Z 34006KT M08/M13 A3016 RMK A01 T10761133  RH  065%=      5-min Rain = 0
KREE 111355Z 33006KT M08/M13 A3017 RMK A01 T10751133  RH  064%=      5-min Rain = 0
KREE 111400Z 34006KT M07/M13 A3017 RMK A01 T10741132  RH  064%=      5-min Rain = 0
KREE 111405Z 36009KT M07/M13 A3017 RMK A01 T10721131  RH  064%=      5-min Rain = 0
KREE 111410Z 00010KT M07/M13 A3017 RMK A01 T10691129  RH  063%=      5-min Rain = 0
KREE 111415Z 00011KT M07/M13 A3018 RMK A01 T10681128  RH  063%=      5-min Rain = 0
KREE 111420Z 00011KT M07/M13 A3018 RMK A01 T10681128  RH  063%=      5-min Rain = 0
KREE 111425Z 36009KT M07/M13 A3018 RMK A01 T10681129  RH  063%=      5-min Rain = 0
KREE 111430Z 00008KT M07/M13 A3018 RMK A01 T10651127  RH  062%=      5-min Rain = 0
KREE 111435Z 35009KT M06/M13 A3018 RMK A01 T10641127  RH  062%=      5-min Rain = 0
KREE 111440Z 36009KT M06/M13 A3018 RMK A01 T10641126  RH  062%=      5-min Rain = 0
KREE 111445Z 35011KT M06/M13 A3018 RMK A01 T10641126  RH  062%=      5-min Rain = 0
KREE 111450Z 35011KT M06/M13 A3018 RMK A01 T10631125  RH  062%=      5-min Rain = 0
KREE 111455Z 36011KT M06/M12 A3019 RMK A01 T10621124  RH  062%=      5-min Rain = 0
KREE 111500Z 35011KT M06/M12 A3019 RMK A01 T10601124  RH  062%=      5-min Rain = 0
KREE 111505Z 36011KT M06/M12 A3019 RMK A01 T10591123  RH  062%=      5-min Rain = 0
KREE 111510Z 00011KT M06/M12 A3019 RMK A01 T10571122  RH  061%=      5-min Rain = 0
KREE 111515Z 35011KT M06/M12 A302 RMK A01 T10571122  RH  061%=      5-min Rain = 0
KREE 111520Z 34009KT M06/M12 A302 RMK A01 T10551122  RH  060%=      5-min Rain = 0
KREE 111525Z 35010KT M05/M12 A3021 RMK A01 T10531121  RH  059%=      5-min Rain = 0
KREE 111530Z 34011KT M05/M12 A3021 RMK A01 T10531121  RH  060%=      5-min Rain = 0
KREE 111535Z 35010KT M05/M12 A3021 RMK A01 T10501120  RH  059%=      5-min Rain = 0
KREE 111540Z 36011KT M05/M12 A3021 RMK A01 T10491119  RH  059%=      5-min Rain = 0
KREE 111545Z 00011KT M05/M12 A3021 RMK A01 T10481118  RH  059%=      5-min Rain = 0
KREE 111550Z 01012KT M05/M12 A302 RMK A01 T10491119  RH  059%=      5-min Rain = 0
KREE 111555Z 01011KT M05/M12 A302 RMK A01 T10481119  RH  058%=      5-min Rain = 0
KREE 111600Z 36011KT M05/M12 A302 RMK A01 T10481120  RH  058%=      5-min Rain = 0
KREE 111605Z 00010G15KT M05/M12 A3021 RMK A01 T10461118  RH  058%=      5-min Rain = 0
KREE 111610Z 01010KT M04/M12 A3021 RMK A01 T10441116  RH  058%=      5-min Rain = 0
KREE 111615Z 36011KT M04/M12 A3021 RMK A01 T10411116  RH  056%=      5-min Rain = 0
KREE 111620Z 36011KT M04/M12 A3021 RMK A01 T10401117  RH  056%=      5-min Rain = 0
KREE 111625Z 35009KT M04/M12 A3022 RMK A01 T10371117  RH  055%=      5-min Rain = 0
KREE 111630Z 35009KT M04/M12 A3022 RMK A01 T10351118  RH  053%=      5-min Rain = 0
KREE 111635Z 35010G15KT M04/M12 A3022 RMK A01 T10351117  RH  054%=      5-min Rain = 0
KREE 111640Z 35011KT M03/M12 A3022 RMK A01 T10311116  RH  053%=      5-min Rain = 0
KREE 111645Z 00013KT M03/M12 A3021 RMK A01 T10271116  RH  051%=      5-min Rain = 0
KREE 111650Z 36013G18KT M02/M11 A3021 RMK A01 T10241114  RH  051%=      5-min Rain = 0
KREE 111655Z 36013KT M02/M11 A3021 RMK A01 T10231114  RH  050%=      5-min Rain = 0
KREE 111700Z 35013KT M02/M12 A3021 RMK A01 T10231115  RH  050%=      5-min Rain = 0
KREE 111705Z 35012KT M03/M12 A3021 RMK A01 T10251116  RH  050%=      5-min Rain = 0
KREE 111710Z 00012KT M03/M12 A3021 RMK A01 T10261117  RH  050%=      5-min Rain = 0
KREE 111715Z 35010KT M03/M12 A3021 RMK A01 T10271117  RH  051%=      5-min Rain = 0
KREE 111720Z 35010KT M03/M12 A3022 RMK A01 T10261117  RH  050%=      5-min Rain = 0
KREE 111725Z 35011KT M03/M12 A3022 RMK A01 T10261118  RH  050%=      5-min Rain = 0
KREE 111730Z 35010KT M03/M12 A3022 RMK A01 T10251116  RH  050%=      5-min Rain = 0
KREE 111735Z 35011KT M02/M12 A3022 RMK A01 T10161115  RH  048%=      5-min Rain = 0
KREE 111740Z 35010KT M01/M11 A3022 RMK A01 T10121114  RH  046%=      5-min Rain = 0
KREE 111745Z 36011G16KT M01/M11 A3021 RMK A01 T10081114  RH  045%=      5-min Rain = 0
KREE 111750Z 35011KT M01/M11 A3021 RMK A01 T10051114  RH  044%=      5-min Rain = 0
KREE 111755Z 35009G14KT M00/M11 A3021 RMK A01 T10031113  RH  044%=      5-min Rain = 0
KREE 111800Z 36012G17KT M00/M12 A3021 RMK A01 T10031115  RH  043%=      5-min Rain = 0
KREE 111805Z 35011G17KT M00/M11 A3021 RMK A01 T10031114  RH  044%=      5-min Rain = 0
KREE 111810Z 35011KT 00/M11 A3021 RMK A01 T00011113  RH  043%=      5-min Rain = 0
KREE 111815Z 34011KT 00/M11 A302 RMK A01 T00041113  RH  042%=      5-min Rain = 0
KREE 111820Z 36010G16KT 00/M11 A302 RMK A01 T00021113  RH  042%=      5-min Rain = 0
KREE 111825Z 00011G16KT 01/M11 A302 RMK A01 T00051114  RH  041%=      5-min Rain = 0
KREE 111830Z 36010G17KT 01/M11 A3019 RMK A01 T00111111  RH  040%=      5-min Rain = 0
KREE 111835Z 00008G13KT 01/M11 A3019 RMK A01 T00131111  RH  040%=      5-min Rain = 0
KREE 111840Z 35011KT 02/M11 A3019 RMK A01 T00161110  RH  039%=      5-min Rain = 0
KREE 111845Z 34011KT 01/M11 A3019 RMK A01 T00121111  RH  040%=      5-min Rain = 0
KREE 111850Z 35009G14KT 01/M11 A3019 RMK A01 T00131110  RH  040%=      5-min Rain = 0
KREE 111855Z 35013KT 02/M11 A3018 RMK A01 T00181110  RH  039%=      5-min Rain = 0
KREE 111900Z 00007G15KT 02/M11 A3018 RMK A01 T00191110  RH  038%=      5-min Rain = 0
KREE 111905Z 00009G14KT 02/M11 A3017 RMK A01 T00231111  RH  037%=      5-min Rain = 0
KREE 111910Z 01007KT 02/M11 A3017 RMK A01 T00221110  RH  037%=      5-min Rain = 0
KREE 111915Z 35009KT 03/M11 A3016 RMK A01 T00271110  RH  036%=      5-min Rain = 0
KREE 111920Z 00009KT 03/M11 A3016 RMK A01 T00271110  RH  036%=      5-min Rain = 0
KREE 111925Z 35008KT 03/M11 A3016 RMK A01 T00271111  RH  036%=      5-min Rain = 0
KREE 111930Z 02008G13KT 03/M11 A3016 RMK A01 T00291111  RH  035%=      5-min Rain = 0
KREE 111935Z 02008KT 04/M11 A3015 RMK A01 T00351112  RH  034%=      5-min Rain = 0
KREE 111940Z 03005KT 04/M11 A3015 RMK A01 T00371113  RH  033%=      5-min Rain = 0
KREE 111945Z 02008KT 04/M12 A3015 RMK A01 T00411115  RH  032%=      5-min Rain = 0
KREE 111950Z 01007KT 04/M12 A3014 RMK A01 T00391117  RH  031%=      5-min Rain = 0
KREE 111955Z 00004G9KT 04/M12 A3014 RMK A01 T00381116  RH  032%=      5-min Rain = 0
KREE 112000Z 02006G11KT 04/M12 A3014 RMK A01 T00421118  RH  031%=      5-min Rain = 0
KREE 112005Z 36007KT 04/M12 A3014 RMK A01 T00421119  RH  030%=      5-min Rain = 0
KREE 112010Z 35006G11KT 04/M12 A3014 RMK A01 T00441118  RH  030%=      5-min Rain = 0
KREE 112015Z 04006KT 05/M12 A3013 RMK A01 T00471120  RH  029%=      5-min Rain = 0
KREE 112020Z 00006KT 05/M12 A3013 RMK A01 T00491119  RH  029%=      5-min Rain = 0
KREE 112025Z 08006G11KT 05/M12 A3013 RMK A01 T00521118  RH  028%=      5-min Rain = 0
KREE 112030Z 03004KT 05/M12 A3013 RMK A01 T00491120  RH  029%=      5-min Rain = 0
KREE 112035Z 03006KT 05/M12 A3013 RMK A01 T00531118  RH  028%=      5-min Rain = 0
KREE 112040Z 34006KT 05/M12 A3013 RMK A01 T00511121  RH  028%=      5-min Rain = 0
KREE 112045Z 01007KT 05/M12 A3012 RMK A01 T00531118  RH  028%=      5-min Rain = 0
KREE 112050Z 03006KT 05/M12 A3012 RMK A01 T00511121  RH  028%=      5-min Rain = 0
KREE 112055Z 06007KT 05/M12 A3012 RMK A01 T00511120  RH  028%=      5-min Rain = 0
KREE 112100Z 07003KT 05/M12 A3012 RMK A01 T00511120  RH  028%=      5-min Rain = 0
KREE 112105Z 06003KT 05/M12 A3012 RMK A01 T00541121  RH  028%=      5-min Rain = 0
KREE 112110Z 04006KT 06/M12 A3012 RMK A01 T00551123  RH  027%=      5-min Rain = 0
KREE 112115Z 06005KT 05/M12 A3012 RMK A01 T00521122  RH  027%=      5-min Rain = 0
KREE 112120Z 02004KT 06/M12 A3012 RMK A01 T00551120  RH  027%=      5-min Rain = 0
KREE 112125Z 02002KT 06/M12 A3012 RMK A01 T00611121  RH  026%=      5-min Rain = 0
KREE 112130Z 06004KT 06/M12 A3012 RMK A01 T00601123  RH  026%=      5-min Rain = 0
KREE 112135Z 07003KT 06/M12 A3012 RMK A01 T00581123  RH  026%=      5-min Rain = 0
KREE 112140Z 34004KT 06/M13 A3012 RMK A01 T00631125  RH  025%=      5-min Rain = 0
KREE 112145Z 33001KT 06/M13 A3012 RMK A01 T00631126  RH  025%=      5-min Rain = 0
KREE 112150Z 05005KT 07/M13 A3012 RMK A01 T00661128  RH  024%=      5-min Rain = 0
KREE 112155Z 01002KT 07/M13 A3012 RMK A01 T00651129  RH  024%=      5-min Rain = 0
KREE 112200Z 07007KT 07/M13 A3012 RMK A01 T00661127  RH  024%=      5-min Rain = 0
KREE 112205Z 08004G9KT 06/M13 A3012 RMK A01 T00621128  RH  024%=      5-min Rain = 0
KREE 112210Z 05004KT 06/M13 A3012 RMK A01 T00631129  RH  024%=      5-min Rain = 0
KREE 112215Z 13003KT 07/M13 A3012 RMK A01 T00651129  RH  024%=      5-min Rain = 0
KREE 112220Z 08004KT 07/M13 A3013 RMK A01 T00651128  RH  024%=      5-min Rain = 0
KREE 112225Z 08003KT 07/M13 A3013 RMK A01 T00651129  RH  024%=      5-min Rain = 0
KREE 112230Z 07004KT 07/M13 A3013 RMK A01 T00651128  RH  024%=      5-min Rain = 0
KREE 112235Z 05004KT 06/M13 A3013 RMK A01 T00641130  RH  024%=      5-min Rain = 0
KREE 112240Z 10003KT 07/M13 A3013 RMK A01 T00661129  RH  024%=      5-min Rain = 0
KREE 112245Z 10003KT 07/M13 A3013 RMK A01 T00671130  RH  023%=      5-min Rain = 0
KREE 112250Z 07004KT 06/M13 A3013 RMK A01 T00621131  RH  024%=      5-min Rain = 0
KREE 112255Z 09005KT 06/M13 A3013 RMK A01 T00591131  RH  025%=      5-min Rain = 0
KREE 112300Z 12003KT 06/M13 A3013 RMK A01 T00591131  RH  024%=      5-min Rain = 0
KREE 112305Z 14003KT 06/M13 A3013 RMK A01 T00601131  RH  024%=      5-min Rain = 0
KREE 112310Z 13002KT 06/M13 A3013 RMK A01 T00621131  RH  024%=      5-min Rain = 0
KREE 112315Z 13001KT 06/M13 A3014 RMK A01 T00621131  RH  024%=      5-min Rain = 0
KREE 112320Z 14000KT 06/M13 A3014 RMK A01 T00641131  RH  024%=      5-min Rain = 0
KREE 112325Z 15002KT 06/M13 A3014 RMK A01 T00641132  RH  023%=      5-min Rain = 0
KREE 112330Z 14004KT 06/M13 A3014 RMK A01 T00631132  RH  024%=      5-min Rain = 0
KREE 112335Z 15003KT 06/M13 A3014 RMK A01 T00641130  RH  024%=      5-min Rain = 0
KREE 112340Z 16004KT 07/M13 A3014 RMK A01 T00661131  RH  023%=      5-min Rain = 0
KREE 112345Z 16003KT 06/M13 A3014 RMK A01 T00621131  RH  024%=      5-min Rain = 0
KREE 112350Z 13003KT 06/M13 A3014 RMK A01 T00601132  RH  024%=      5-min Rain = 0
KREE 112355Z 12003KT 06/M13 A3014 RMK A01 T00561133  RH  025%=      5-min Rain = 0
KREE 120000Z 12004KT 05/M14 A3014 RMK A01 T00501135  RH  025%=      5-min Rain = 0
KREE 120005Z 12004KT 05/M14 A3014 RMK A01 T00471136  RH  026%=      5-min Rain = 0
KREE 120010Z 12004KT 04/M14 A3015 RMK A01 T00421137  RH  026%=      5-min Rain = 0
KREE 120015Z 13004KT 04/M14 A3015 RMK A01 T00381138  RH  027%=      5-min Rain = 0
KREE 120020Z 13004KT 03/M14 A3015 RMK A01 T00341139  RH  027%=      5-min Rain = 0
KREE 120025Z 15003KT 03/M14 A3015 RMK A01 T00341137  RH  028%=      5-min Rain = 0
KREE 120030Z 15004KT 04/M14 A3015 RMK A01 T00361137  RH  028%=      5-min Rain = 0
KREE 120035Z 16005KT 03/M14 A3015 RMK A01 T00341139  RH  027%=      5-min Rain = 0
KREE 120040Z 16006KT 03/M14 A3015 RMK A01 T00271141  RH  028%=      5-min Rain = 0
KREE 120045Z 16006KT 02/M14 A3015 RMK A01 T00221144  RH  028%=      5-min Rain = 0
KREE 120050Z 16006KT 02/M14 A3015 RMK A01 T00201143  RH  029%=      5-min Rain = 0
KREE 120055Z 16006KT 02/M14 A3015 RMK A01 T00211143  RH  029%=      5-min Rain = 0
KREE 120100Z 16006KT 02/M14 A3016 RMK A01 T00191143  RH  029%=      5-min Rain = 0
KREE 120105Z 17006KT 01/M15 A3016 RMK A01 T00131145  RH  030%=      5-min Rain = 0
KREE 120110Z 18006KT 01/M14 A3016 RMK A01 T00091142  RH  032%=      5-min Rain = 0
KREE 120115Z 17005KT 01/M14 A3016 RMK A01 T00111140  RH  032%=      5-min Rain = 0
KREE 120120Z 17006KT 01/M14 A3016 RMK A01 T00121141  RH  031%=      5-min Rain = 0
KREE 120125Z 17005KT 01/M14 A3016 RMK A01 T00081143  RH  032%=      5-min Rain = 0
KREE 120130Z 18005KT 01/M14 A3016 RMK A01 T00071141  RH  033%=      5-min Rain = 0
KREE 120135Z 18005KT 01/M14 A3016 RMK A01 T00071140  RH  033%=      5-min Rain = 0
KREE 120140Z 16003KT 01/M14 A3016 RMK A01 T00081139  RH  033%=      5-min Rain = 0
KREE 120145Z 16002KT 01/M13 A3016 RMK A01 T00071133  RH  035%=      5-min Rain = 0
KREE 120150Z 14003KT 01/M13 A3016 RMK A01 T00091133  RH  034%=      5-min Rain = 0
KREE 120155Z 13003KT 01/M13 A3016 RMK A01 T00121132  RH  034%=      5-min Rain = 0
KREE 120200Z 13003KT 01/M13 A3016 RMK A01 T00131134  RH  033%=      5-min Rain = 0
KREE 120205Z 14003KT 01/M13 A3017 RMK A01 T00121134  RH  033%=      5-min Rain = 0
KREE 120210Z 14004KT 01/M14 A3017 RMK A01 T00081142  RH  032%=      5-min Rain = 0
KREE 120215Z 14005KT 00/M14 A3017 RMK A01 T00021137  RH  035%=      5-min Rain = 0
KREE 120220Z 14005KT 00/M14 A3017 RMK A01 T00021135  RH  036%=      5-min Rain = 0
KREE 120225Z 14005KT 01/M13 A3017 RMK A01 T00061134  RH  035%=      5-min Rain = 0
KREE 120230Z 14006KT 00/M14 A3017 RMK A01 T00041138  RH  034%=      5-min Rain = 0
KREE 120235Z 15006KT 00/M14 A3018 RMK A01 T00011137  RH  035%=      5-min Rain = 0
KREE 120240Z 15005KT M00/M14 A3018 RMK A01 T10021137  RH  036%=      5-min Rain = 0
KREE 120245Z 15006KT M00/M14 A3018 RMK A01 T10031136  RH  036%=      5-min Rain = 0
KREE 120250Z 15005KT M01/M13 A3018 RMK A01 T10071133  RH  038%=      5-min Rain = 0
KREE 120255Z 16005KT M01/M13 A3019 RMK A01 T10081134  RH  039%=      5-min Rain = 0
KREE 120300Z 15005KT M01/M14 A3019 RMK A01 T10111136  RH  039%=      5-min Rain = 0
KREE 120305Z 15005KT M01/M14 A3019 RMK A01 T10121136  RH  039%=      5-min Rain = 0
KREE 120310Z 15005KT M01/M14 A3019 RMK A01 T10121136  RH  039%=      5-min Rain = 0
KREE 120315Z 15005KT M01/M14 A3019 RMK A01 T10121136  RH  039%=      5-min Rain = 0
KREE 120320Z 15005KT M01/M14 A3019 RMK A01 T10121135  RH  039%=      5-min Rain = 0
KREE 120325Z 15006KT M01/M14 A3019 RMK A01 T10121137  RH  039%=      5-min Rain = 0
KREE 120330Z 15007KT M02/M14 A3019 RMK A01 T10171140  RH  039%=      5-min Rain = 0
KREE 120335Z 15007KT M02/M14 A302 RMK A01 T10181138  RH  040%=      5-min Rain = 0
KREE 120340Z 15007KT M02/M14 A302 RMK A01 T10191138  RH  041%=      5-min Rain = 0
KREE 120345Z 15006KT M02/M14 A302 RMK A01 T10191135  RH  041%=      5-min Rain = 0
KREE 120350Z 15007KT M02/M14 A302 RMK A01 T10181135  RH  041%=      5-min Rain = 0
KREE 120355Z 15006KT M02/M14 A302 RMK A01 T10201136  RH  041%=      5-min Rain = 0
KREE 120400Z 15006KT M02/M14 A302 RMK A01 T10211136  RH  041%=      5-min Rain = 0
KREE 120405Z 14006KT M02/M14 A302 RMK A01 T10211137  RH  041%=      5-min Rain = 0
KREE 120410Z 14005KT M03/M14 A302 RMK A01 T10251140  RH  042%=      5-min Rain = 0
KREE 120415Z 14006KT M03/M14 A3021 RMK A01 T10271139  RH  042%=      5-min Rain = 0
KREE 120420Z 15006KT M03/M14 A3021 RMK A01 T10281139  RH  043%=      5-min Rain = 0
KREE 120425Z 15006KT M03/M14 A302 RMK A01 T10271139  RH  043%=      5-min Rain = 0
KREE 120430Z 15006KT M03/M14 A3021 RMK A01 T10281139  RH  043%=      5-min Rain = 0
KREE 120435Z 15006KT M03/M14 A3021 RMK A01 T10291139  RH  043%=      5-min Rain = 0
KREE 120440Z 16006KT M03/M14 A3021 RMK A01 T10301138  RH  044%=      5-min Rain = 0
KREE 120445Z 16007KT M03/M14 A3021 RMK A01 T10321138  RH  044%=      5-min Rain = 0
KREE 120450Z 16006KT M03/M14 A3021 RMK A01 T10341140  RH  044%=      5-min Rain = 0
KREE 120455Z 16007KT M04/M14 A3021 RMK A01 T10371141  RH  045%=      5-min Rain = 0
KREE 120500Z 16006KT M04/M14 A3021 RMK A01 T10411143  RH  046%=      5-min Rain = 0
KREE 120505Z 16006KT M05/M14 A3021 RMK A01 T10451143  RH  047%=      5-min Rain = 0
KREE 120510Z 15005KT M05/M14 A3021 RMK A01 T10451142  RH  047%=      5-min Rain = 0
KREE 120515Z 15006KT M04/M14 A3021 RMK A01 T10441143  RH  047%=      5-min Rain = 0
KREE 120520Z 15006KT M05/M14 A3021 RMK A01 T10451143  RH  047%=      5-min Rain = 0
KREE 120525Z 15005KT M04/M14 A3021 RMK A01 T10441143  RH  047%=      5-min Rain = 0
KREE 120530Z 15005KT M04/M14 A3021 RMK A01 T10431141  RH  047%=      5-min Rain = 0
KREE 120535Z 14005KT M04/M14 A3021 RMK A01 T10401140  RH  046%=      5-min Rain = 0
KREE 120540Z 14004KT M04/M14 A3021 RMK A01 T10411141  RH  047%=      5-min Rain = 0
KREE 120545Z 14005KT M04/M14 A3021 RMK A01 T10411137  RH  048%=      5-min Rain = 0
KREE 120550Z 15004KT M04/M14 A3021 RMK A01 T10391136  RH  048%=      5-min Rain = 0
KREE 120555Z 16004KT M04/M14 A3021 RMK A01 T10371136  RH  047%=      5-min Rain = 0

Page generated in 0.009 seconds.